createdAt,value
2023-04-27T00:00:37.772Z,49466.56
2023-04-27T00:05:55.552Z,49494.53
2023-04-27T00:11:00.457Z,49472.56
2023-04-27T00:16:05.264Z,49506.53
2023-04-27T00:21:12.285Z,49444.56
2023-04-27T00:26:16.596Z,49458.56
2023-04-27T00:31:23.698Z,49476.53
2023-04-27T00:36:29.484Z,49476.53
2023-04-27T00:41:34.071Z,49446.56
2023-04-27T00:46:38.539Z,49482.53
2023-04-27T00:51:44.251Z,49488.53
2023-04-27T00:56:50.381Z,49510.53
2023-04-27T01:01:55.283Z,49510.53
2023-04-27T01:07:02.806Z,49502.53
2023-04-27T01:12:09.007Z,49522.53
2023-04-27T01:17:14.364Z,49512.53
2023-04-27T01:22:20.307Z,49524.53
2023-04-27T01:27:26.284Z,49510.53
2023-04-27T01:32:30.812Z,49526.50
2023-04-27T01:37:35.941Z,49526.50
2023-04-27T01:42:42.355Z,49512.53
2023-04-27T01:47:47.037Z,49510.53
2023-04-27T01:52:51.542Z,49514.53
2023-04-27T01:57:57.315Z,49534.50
2023-04-27T02:03:02.116Z,49520.53
2023-04-27T02:08:07.156Z,49544.50
2023-04-27T02:13:12.987Z,49544.50
2023-04-27T02:18:17.362Z,49540.50
2023-04-27T02:23:21.716Z,49518.53
2023-04-27T02:28:27.462Z,49540.50
2023-04-27T02:33:32.236Z,49534.50
2023-04-27T02:38:36.656Z,49548.50
2023-04-27T02:43:42.279Z,49522.53
2023-04-27T02:48:46.637Z,49514.53
2023-04-27T02:53:51.032Z,49526.50
2023-04-27T02:58:57.186Z,49532.50
2023-04-27T03:04:01.690Z,49544.50
2023-04-27T03:09:06.274Z,49558.50
2023-04-27T03:14:12.914Z,49554.50
2023-04-27T03:19:17.106Z,49526.50
2023-04-27T03:24:21.973Z,49538.50
2023-04-27T03:29:28.478Z,49538.50
2023-04-27T03:34:33.404Z,49560.50
2023-04-27T03:39:37.536Z,49572.50
2023-04-27T03:44:43.260Z,49566.50
2023-04-27T03:49:47.926Z,49584.47
2023-04-27T03:54:53.241Z,49594.47
2023-04-27T03:59:59.411Z,49618.47
2023-04-27T04:05:04.403Z,49610.47
2023-04-27T04:10:09.909Z,49598.47
2023-04-27T04:15:16.563Z,49614.47
2023-04-27T04:20:21.219Z,49644.44
2023-04-27T04:25:26.327Z,49578.47
2023-04-27T04:30:32.784Z,49612.47
2023-04-27T04:35:39.560Z,49640.44
2023-04-27T04:40:45.877Z,49634.44
2023-04-27T04:45:51.927Z,49620.47
2023-04-27T04:50:57.420Z,49654.44
2023-04-27T04:56:10.187Z,49640.44
2023-04-27T05:01:16.511Z,49644.44
2023-04-27T05:06:21.226Z,49666.44
2023-04-27T05:11:25.669Z,49732.38
2023-04-27T05:16:31.253Z,49706.41
2023-04-27T05:21:35.815Z,49860.31
2023-04-27T05:26:40.170Z,49898.28
2023-04-27T05:31:45.978Z,49898.28
2023-04-27T05:36:50.650Z,49866.31
2023-04-27T05:41:55.456Z,49862.31
2023-04-27T05:47:01.604Z,49866.31
2023-04-27T05:52:06.175Z,50008.25
2023-04-27T05:57:10.296Z,50342.06
2023-04-27T06:02:16.719Z,50464.03
2023-04-27T06:07:21.619Z,50693.94
2023-04-27T06:12:26.030Z,50715.94
2023-04-27T06:17:32.153Z,50807.91
2023-04-27T06:22:37.803Z,50867.88
2023-04-27T06:27:42.212Z,50254.13
2023-04-27T06:32:48.050Z,50020.22
2023-04-27T06:37:52.427Z,49938.28
2023-04-27T06:42:57.308Z,50268.09
2023-04-27T06:48:03.384Z,50753.91
2023-04-27T06:53:08.467Z,50809.91
2023-04-27T06:58:12.839Z,51297.78
2023-04-27T07:03:18.770Z,51109.81
2023-04-27T07:08:23.275Z,51509.75
2023-04-27T07:13:27.831Z,51519.75
2023-04-27T07:18:33.419Z,51409.75
2023-04-27T07:23:37.892Z,51461.75
2023-04-27T07:28:42.244Z,51119.81
2023-04-27T07:33:47.923Z,50717.94
2023-04-27T07:38:52.024Z,50923.88
2023-04-27T07:43:56.201Z,51423.75
2023-04-27T07:49:02.624Z,50669.94
2023-04-27T07:54:07.132Z,50919.88
2023-04-27T07:59:11.909Z,50522.00
2023-04-27T08:04:18.392Z,50080.19
2023-04-27T08:09:23.480Z,49882.31
2023-04-27T08:14:28.288Z,49764.38
2023-04-27T08:19:33.806Z,49572.50
2023-04-27T08:24:38.153Z,49638.44
2023-04-27T08:29:47.263Z,49570.50
2023-04-27T08:34:53.133Z,49866.31
2023-04-27T08:39:57.582Z,50126.19
2023-04-27T08:45:02.073Z,50338.06
2023-04-27T08:50:11.762Z,50136.16
2023-04-27T08:55:18.244Z,49944.28
2023-04-27T09:00:23.067Z,49710.41
2023-04-27T09:05:28.727Z,49702.41
2023-04-27T09:10:45.266Z,49648.44
2023-04-27T09:15:50.959Z,49632.44
2023-04-27T09:20:56.607Z,49542.50
2023-04-27T09:26:02.189Z,49656.44
2023-04-27T09:31:09.499Z,49674.44
2023-04-27T09:36:15.796Z,49598.47
2023-04-27T09:41:20.324Z,49622.47
2023-04-27T09:46:25.397Z,49586.47
2023-04-27T09:51:32.074Z,49592.47
2023-04-27T09:56:47.874Z,49538.50
2023-04-27T10:01:55.988Z,49612.47
2023-04-27T10:07:03.267Z,49602.47
2023-04-27T10:12:18.860Z,49664.44
2023-04-27T10:17:28.025Z,49690.41
2023-04-27T10:22:41.559Z,49686.41
2023-04-27T10:27:49.827Z,49688.41
2023-04-27T10:32:56.197Z,49678.41
2023-04-27T10:38:09.192Z,49590.47
2023-04-27T10:43:14.951Z,49666.44
2023-04-27T10:48:19.347Z,49656.44
2023-04-27T10:53:25.413Z,49794.34
2023-04-27T10:58:37.700Z,49668.44
2023-04-27T11:03:57.351Z,49698.41
2023-04-27T11:09:03.411Z,49778.38
2023-04-27T11:14:08.260Z,49796.34
2023-04-27T11:19:13.061Z,49688.41
2023-04-27T11:24:19.008Z,49644.44
2023-04-27T11:29:24.052Z,49768.38
2023-04-27T11:34:28.312Z,49690.41
2023-04-27T11:39:37.272Z,49678.41
2023-04-27T11:44:41.689Z,49654.44
2023-04-27T11:49:48.693Z,49646.44
2023-04-27T11:54:56.715Z,49714.41
2023-04-27T12:00:02.838Z,49792.34
2023-04-27T12:05:17.515Z,49844.31
2023-04-27T12:10:23.147Z,49850.31
2023-04-27T12:15:27.292Z,49938.28
2023-04-27T12:20:31.662Z,49820.34
2023-04-27T12:25:38.047Z,49746.38
2023-04-27T12:30:42.222Z,49642.44
2023-04-27T12:35:46.543Z,49662.44
2023-04-27T12:40:52.139Z,49670.44
2023-04-27T12:45:56.485Z,49804.34
2023-04-27T12:51:00.715Z,49774.38
2023-04-27T12:56:07.164Z,49742.38
2023-04-27T13:01:15.209Z,49774.38
2023-04-27T13:06:20.314Z,49714.41
2023-04-27T13:11:27.591Z,49710.41
2023-04-27T13:16:31.976Z,49694.41
2023-04-27T13:21:36.275Z,49614.47
2023-04-27T13:26:43.607Z,49710.41
2023-04-27T13:31:48.090Z,49874.31
2023-04-27T13:36:52.540Z,50102.19
2023-04-27T13:41:58.361Z,50006.25
2023-04-27T13:47:02.661Z,50422.03
2023-04-27T13:52:09.289Z,50456.03
2023-04-27T13:57:15.347Z,50534.00
2023-04-27T14:02:19.624Z,50130.19
2023-04-27T14:07:24.022Z,49828.34
2023-04-27T14:12:30.270Z,49780.34
2023-04-27T14:17:35.228Z,49718.41
2023-04-27T14:22:39.934Z,49672.44
2023-04-27T14:27:45.842Z,49650.44
2023-04-27T14:32:50.327Z,49640.44
2023-04-27T14:37:57.296Z,49664.44
2023-04-27T14:43:02.828Z,49658.44
2023-04-27T14:48:07.338Z,49610.47
2023-04-27T14:53:11.874Z,49634.44
2023-04-27T14:58:17.431Z,49672.44
2023-04-27T15:03:22.088Z,49690.41
2023-04-27T15:08:26.780Z,49700.41
2023-04-27T15:13:32.829Z,49866.31
2023-04-27T15:18:36.920Z,49986.25
2023-04-27T15:23:41.090Z,49820.34
2023-04-27T15:28:46.682Z,49694.41
2023-04-27T15:33:50.825Z,49706.41
2023-04-27T15:38:55.548Z,49700.41
2023-04-27T15:44:01.276Z,49686.41
2023-04-27T15:49:05.491Z,49576.47
2023-04-27T15:54:09.802Z,49582.47
2023-04-27T15:59:15.704Z,49512.53
2023-04-27T16:04:20.449Z,49570.50
2023-04-27T16:09:25.769Z,49588.47
2023-04-27T16:14:31.667Z,49534.50
2023-04-27T16:19:35.797Z,49570.50
2023-04-27T16:24:39.977Z,49568.50
2023-04-27T16:29:45.854Z,49558.50
2023-04-27T16:34:49.934Z,49508.53
2023-04-27T16:39:54.415Z,49522.53
2023-04-27T16:45:00.123Z,49580.47
2023-04-27T16:50:04.956Z,49526.50
2023-04-27T16:55:10.449Z,49498.53
2023-04-27T17:00:17.303Z,49552.50
2023-04-27T17:05:21.546Z,49546.50
2023-04-27T17:10:26.028Z,49518.53
2023-04-27T17:15:31.639Z,49554.50
2023-04-27T17:20:36.034Z,49514.53
2023-04-27T17:25:41.661Z,49520.53
2023-04-27T17:30:47.304Z,49466.56
2023-04-27T17:35:51.552Z,49466.56
2023-04-27T17:40:56.120Z,49470.56
2023-04-27T17:46:02.223Z,49432.56
2023-04-27T17:51:06.399Z,49442.56
2023-04-27T17:56:10.728Z,49402.59
2023-04-27T18:01:16.442Z,49386.59
2023-04-27T18:06:21.818Z,49366.63
2023-04-27T18:11:26.084Z,49354.63
2023-04-27T18:16:31.768Z,49344.63
2023-04-27T18:21:36.608Z,49368.63
2023-04-27T18:26:40.838Z,49350.63
2023-04-27T18:31:46.875Z,49350.63
2023-04-27T18:36:52.241Z,49330.66
2023-04-27T18:41:57.558Z,49342.63
2023-04-27T18:47:03.649Z,49354.63
2023-04-27T18:52:11.580Z,49300.66
2023-04-27T18:57:15.992Z,49292.69
2023-04-27T19:02:21.601Z,49322.66
2023-04-27T19:07:26.407Z,49306.66
2023-04-27T19:12:31.604Z,49274.69
2023-04-27T19:17:37.269Z,49270.69
2023-04-27T19:22:41.640Z,49268.69
2023-04-27T19:27:46.300Z,49294.66
2023-04-27T19:32:52.265Z,49268.69
2023-04-27T19:37:56.599Z,49230.72
2023-04-27T19:43:00.949Z,49240.72
2023-04-27T19:48:07.592Z,49226.72
2023-04-27T19:53:12.067Z,49248.69
2023-04-27T19:58:16.623Z,49260.69
2023-04-27T20:03:22.797Z,49250.69
2023-04-27T20:08:27.122Z,49270.69
2023-04-27T20:13:31.705Z,49230.72
2023-04-27T20:18:38.142Z,49242.72
2023-04-27T20:23:43.062Z,49224.72
2023-04-27T20:28:47.502Z,49250.69
2023-04-27T20:33:53.413Z,49282.69
2023-04-27T20:39:01.027Z,49294.66
2023-04-27T20:44:05.302Z,49290.69
2023-04-27T20:49:12.067Z,49266.69
2023-04-27T20:54:16.706Z,49292.69
2023-04-27T20:59:21.203Z,49274.69
2023-04-27T21:04:26.878Z,49302.66
2023-04-27T21:09:31.464Z,49262.69
2023-04-27T21:14:35.619Z,49256.69
2023-04-27T21:19:41.092Z,49246.72
2023-04-27T21:24:45.308Z,49218.72
2023-04-27T21:29:49.659Z,49240.72
2023-04-27T21:34:55.438Z,49242.72
2023-04-27T21:39:59.574Z,49246.72
2023-04-27T21:45:04.757Z,49260.69
2023-04-27T21:50:11.419Z,49252.69
2023-04-27T21:55:19.294Z,49250.69
2023-04-27T22:00:23.973Z,49272.69
2023-04-27T22:05:29.590Z,49304.66
2023-04-27T22:10:33.841Z,49320.66
2023-04-27T22:15:38.451Z,49300.66
2023-04-27T22:20:44.954Z,49314.66
2023-04-27T22:25:49.080Z,49292.69
2023-04-27T22:30:53.261Z,49278.69
2023-04-27T22:35:59.104Z,49290.69
2023-04-27T22:41:03.479Z,49302.66
2023-04-27T22:46:07.591Z,49306.66
2023-04-27T22:51:13.414Z,49316.66
2023-04-27T22:56:17.731Z,49294.66
2023-04-27T23:01:21.931Z,49354.63
2023-04-27T23:06:28.636Z,49320.66
2023-04-27T23:11:32.961Z,49330.66
2023-04-27T23:16:37.438Z,49362.63
2023-04-27T23:21:43.384Z,49338.63
2023-04-27T23:26:47.711Z,49336.66
2023-04-27T23:31:51.911Z,49386.59
2023-04-27T23:36:57.422Z,49374.63
2023-04-27T23:42:02.032Z,49318.66
2023-04-27T23:47:06.440Z,49316.66
2023-04-27T23:52:12.839Z,49346.63
2023-04-27T23:57:17.234Z,49330.66
